createdAt,value
2019-04-10T00:01:53.106Z,21.80
2019-04-10T00:04:21.651Z,25.00
2019-04-10T00:06:50.116Z,25.33
2019-04-10T00:09:19.046Z,24.40
2019-04-10T00:11:47.537Z,21.83
2019-04-10T00:14:16.428Z,24.70
2019-04-10T00:16:44.923Z,23.47
2019-04-10T00:19:13.456Z,28.40
2019-04-10T00:21:41.916Z,21.27
2019-04-10T00:24:11.446Z,24.60
2019-04-10T00:26:40.106Z,22.67
2019-04-10T00:29:08.569Z,21.67
2019-04-10T00:31:38.061Z,21.53
2019-04-10T00:34:07.394Z,20.97
2019-04-10T00:36:35.966Z,23.20
2019-04-10T00:39:06.450Z,23.37
2019-04-10T00:41:35.087Z,21.93
2019-04-10T00:44:03.660Z,27.23
2019-04-10T00:46:32.525Z,26.23
2019-04-10T00:49:01.126Z,24.70
2019-04-10T00:51:29.588Z,23.87
2019-04-10T00:53:58.053Z,24.63
2019-04-10T00:56:26.516Z,20.47
2019-04-10T00:58:55.423Z,22.83
2019-04-10T01:01:24.013Z,20.70
2019-04-10T01:03:52.478Z,21.17
2019-04-10T01:06:21.963Z,21.40
2019-04-10T01:08:51.060Z,20.53
2019-04-10T01:11:19.572Z,21.30
2019-04-10T01:13:48.106Z,18.47
2019-04-10T01:16:17.630Z,22.13
2019-04-10T01:18:46.418Z,20.80
2019-04-10T01:21:14.859Z,19.10
2019-04-10T01:23:43.327Z,22.57
2019-04-10T01:26:12.731Z,20.53
2019-04-10T01:28:41.291Z,18.23
2019-04-10T01:31:10.634Z,23.50
2019-04-10T01:33:39.383Z,20.40
2019-04-10T01:36:08.868Z,18.67
2019-04-10T01:38:37.788Z,20.13
2019-04-10T01:41:06.367Z,21.73
2019-04-10T01:43:35.220Z,19.27
2019-04-10T01:46:04.193Z,22.20
2019-04-10T01:48:32.939Z,19.03
2019-04-10T01:51:01.440Z,20.17
2019-04-10T01:53:30.083Z,21.90
2019-04-10T01:55:59.585Z,17.43
2019-04-10T01:58:29.345Z,20.50
2019-04-10T02:01:05.186Z,21.73
2019-04-10T02:03:34.097Z,17.10
2019-04-10T02:06:03.146Z,21.27
2019-04-10T02:08:32.014Z,19.60
2019-04-10T02:11:00.703Z,24.83
2019-04-10T02:13:29.697Z,19.73
2019-04-10T02:15:58.595Z,24.50
2019-04-10T02:18:27.687Z,23.90
2019-04-10T02:20:56.270Z,21.40
2019-04-10T02:23:24.730Z,22.00
2019-04-10T02:25:53.279Z,25.27
2019-04-10T02:28:22.682Z,22.33
2019-04-10T02:30:51.227Z,19.00
2019-04-10T02:33:19.744Z,24.57
2019-04-10T02:35:48.396Z,30.77
2019-04-10T02:38:35.796Z,21.90
2019-04-10T02:40:47.630Z,21.30
2019-04-10T02:43:16.347Z,22.63
2019-04-10T02:45:45.035Z,21.30
2019-04-10T02:48:14.917Z,21.73
2019-04-10T02:50:44.795Z,26.90
2019-04-10T02:53:15.149Z,22.20
2019-04-10T02:55:43.932Z,20.53
2019-04-10T02:58:14.067Z,19.77
2019-04-10T03:00:43.998Z,24.17
2019-04-10T03:03:13.893Z,23.13
2019-04-10T03:05:42.694Z,20.27
2019-04-10T03:08:13.014Z,23.23
2019-04-10T03:10:48.638Z,20.70
2019-04-10T03:13:13.597Z,19.10
2019-04-10T03:15:43.403Z,21.93
2019-04-10T03:18:12.727Z,20.50
2019-04-10T03:20:42.623Z,25.37
2019-04-10T03:23:11.579Z,21.73
2019-04-10T03:25:41.296Z,18.20
2019-04-10T03:28:14.589Z,17.80
2019-04-10T03:30:44.329Z,17.70
2019-04-10T03:33:21.908Z,21.07
2019-04-10T03:35:49.642Z,18.63
2019-04-10T03:38:18.337Z,19.43
2019-04-10T03:40:47.925Z,21.10
2019-04-10T03:43:17.454Z,23.60
2019-04-10T03:45:46.704Z,26.80
2019-04-10T03:48:15.926Z,20.77
2019-04-10T03:50:44.759Z,19.73
2019-04-10T03:53:14.035Z,20.37
2019-04-10T03:55:43.252Z,18.13
2019-04-10T03:58:11.855Z,19.07
2019-04-10T04:00:40.492Z,25.33
2019-04-10T04:03:08.983Z,28.27
2019-04-10T04:05:37.455Z,25.30
2019-04-10T04:08:05.973Z,21.77
2019-04-10T04:10:35.081Z,19.23
2019-04-10T04:13:05.761Z,20.30
2019-04-10T04:15:34.000Z,22.80
2019-04-10T04:18:02.559Z,21.53
2019-04-10T04:20:31.853Z,18.00
2019-04-10T04:23:01.386Z,19.53
2019-04-10T04:25:30.415Z,18.07
2019-04-10T04:27:58.958Z,18.77
2019-04-10T04:30:27.465Z,22.63
2019-04-10T04:32:56.110Z,18.80
2019-04-10T04:35:25.604Z,18.97
2019-04-10T04:37:54.966Z,19.30
2019-04-10T04:40:58.353Z,21.80
2019-04-10T04:43:26.932Z,20.40
2019-04-10T04:45:55.514Z,21.20
2019-04-10T04:48:24.320Z,22.10
2019-04-10T04:50:52.939Z,22.47
2019-04-10T04:53:21.383Z,24.13
2019-04-10T04:55:49.837Z,25.13
2019-04-10T04:58:18.299Z,26.93
2019-04-10T05:00:46.774Z,24.00
2019-04-10T05:03:16.295Z,21.20
2019-04-10T05:05:44.947Z,25.20
2019-04-10T05:08:13.394Z,22.70
2019-04-10T05:10:42.103Z,23.93
2019-04-10T05:13:10.554Z,25.47
2019-04-10T05:15:39.007Z,24.90
2019-04-10T05:18:07.550Z,20.50
2019-04-10T05:20:43.984Z,21.90
2019-04-10T05:23:06.295Z,22.10
2019-04-10T05:25:35.903Z,22.37
2019-04-10T05:28:05.862Z,23.27
2019-04-10T05:30:35.581Z,19.93
2019-04-10T05:33:04.359Z,19.37
2019-04-10T05:35:32.808Z,20.93
2019-04-10T05:38:01.267Z,21.03
2019-04-10T05:40:30.143Z,20.43
2019-04-10T05:42:59.602Z,24.70
2019-04-10T05:45:28.093Z,24.10
2019-04-10T05:47:56.966Z,24.10
2019-04-10T05:50:25.733Z,26.07
2019-04-10T05:52:54.287Z,24.20
2019-04-10T05:55:22.752Z,22.73
2019-04-10T05:57:51.270Z,22.10
2019-04-10T06:00:20.862Z,23.40
2019-04-10T06:02:50.275Z,24.03
2019-04-10T06:05:18.823Z,20.10
2019-04-10T06:07:47.557Z,24.27
2019-04-10T06:10:17.473Z,23.60
2019-04-10T06:12:46.704Z,21.80
2019-04-10T06:15:15.497Z,27.13
2019-04-10T06:17:44.812Z,22.60
2019-04-10T06:20:14.151Z,22.07
2019-04-10T06:22:44.421Z,28.53
2019-04-10T06:25:16.195Z,22.07
2019-04-10T06:27:45.015Z,22.13
2019-04-10T06:30:13.758Z,24.37
2019-04-10T06:32:43.252Z,25.33
2019-04-10T06:35:13.484Z,22.33
2019-04-10T06:37:42.278Z,22.60
2019-04-10T06:40:18.634Z,29.63
2019-04-10T06:42:48.484Z,26.97
2019-04-10T06:45:11.641Z,29.17
2019-04-10T06:47:40.086Z,36.70
2019-04-10T06:50:08.700Z,27.33
2019-04-10T06:52:37.155Z,31.23
2019-04-10T06:55:06.839Z,27.27
2019-04-10T06:57:46.817Z,25.80
2019-04-10T07:00:12.770Z,25.83
2019-04-10T07:02:39.362Z,29.30
2019-04-10T07:05:10.543Z,31.60
2019-04-10T07:07:49.633Z,33.87
2019-04-10T07:10:21.463Z,33.83
2019-04-10T07:12:39.729Z,26.60
2019-04-10T07:15:08.879Z,26.63
2019-04-10T07:17:40.668Z,27.20
2019-04-10T07:20:09.532Z,25.80
2019-04-10T07:22:44.629Z,29.17
2019-04-10T07:25:10.300Z,25.83
2019-04-10T07:27:40.190Z,27.70
2019-04-10T07:30:09.906Z,28.23
2019-04-10T07:32:42.081Z,28.23
2019-04-10T07:35:09.015Z,24.23
2019-04-10T07:37:37.662Z,28.33
2019-04-10T07:40:10.036Z,26.83
2019-04-10T07:42:41.330Z,24.90
2019-04-10T07:45:09.392Z,26.10
2019-04-10T07:47:38.121Z,24.80
2019-04-10T07:50:08.788Z,22.80
2019-04-10T07:52:37.497Z,21.90
2019-04-10T07:55:06.636Z,24.47
2019-04-10T07:57:36.286Z,26.20
2019-04-10T08:00:08.884Z,27.83
2019-04-10T08:02:38.510Z,29.10
2019-04-10T08:05:08.564Z,31.83
2019-04-10T08:07:38.786Z,26.37
2019-04-10T08:10:09.950Z,26.73
2019-04-10T08:12:46.000Z,24.87
2019-04-10T08:15:09.419Z,21.10
2019-04-10T08:17:39.029Z,19.70
2019-04-10T08:20:08.222Z,16.67
2019-04-10T08:22:37.170Z,16.60
2019-04-10T08:25:08.879Z,18.90
2019-04-10T08:27:38.396Z,15.20
2019-04-10T08:30:10.779Z,16.80
2019-04-10T08:32:51.535Z,15.60
2019-04-10T08:35:09.192Z,15.97
2019-04-10T08:37:38.931Z,21.67
2019-04-10T08:40:09.599Z,24.87
2019-04-10T08:42:40.178Z,28.60
2019-04-10T08:45:09.190Z,32.37
2019-04-10T08:47:37.926Z,29.93
2019-04-10T08:50:07.795Z,24.80
2019-04-10T08:52:37.093Z,23.77
2019-04-10T08:55:07.965Z,26.37
2019-04-10T08:57:36.527Z,26.93
2019-04-10T09:00:08.530Z,26.97
2019-04-10T09:02:38.137Z,29.77
2019-04-10T09:05:09.067Z,27.57
2019-04-10T09:07:38.187Z,31.27
2019-04-10T09:10:08.152Z,28.60
2019-04-10T09:12:36.854Z,28.03
2019-04-10T09:15:07.671Z,30.10
2019-04-10T09:17:37.520Z,28.90
2019-04-10T09:20:07.292Z,27.27
2019-04-10T09:22:57.206Z,25.73
2019-04-10T09:25:07.195Z,27.07
2019-04-10T09:27:35.938Z,29.53
2019-04-10T09:30:08.710Z,30.43
2019-04-10T09:32:37.389Z,28.47
2019-04-10T09:35:08.650Z,27.60
2019-04-10T09:37:37.975Z,25.67
2019-04-10T09:40:08.860Z,25.17
2019-04-10T09:42:37.580Z,24.30
2019-04-10T09:45:07.281Z,22.10
2019-04-10T09:47:35.835Z,22.20
2019-04-10T09:50:06.132Z,23.30
2019-04-10T09:52:35.686Z,24.70
2019-04-10T09:55:07.336Z,24.20
2019-04-10T09:57:36.705Z,21.30
2019-04-10T10:00:10.564Z,24.40
2019-04-10T10:02:39.958Z,22.70
2019-04-10T10:05:08.763Z,22.53
2019-04-10T10:07:37.239Z,21.90
2019-04-10T10:10:10.604Z,22.77
2019-04-10T10:12:39.376Z,22.50
2019-04-10T10:15:09.517Z,22.00
2019-04-10T10:17:39.191Z,24.43
2019-04-10T10:20:08.711Z,25.07
2019-04-10T10:22:37.235Z,22.17
2019-04-10T10:25:09.027Z,21.10
2019-04-10T10:27:38.572Z,22.70
2019-04-10T10:30:09.795Z,27.20
2019-04-10T10:32:39.277Z,20.33
2019-04-10T10:35:09.378Z,23.73
2019-04-10T10:37:38.879Z,22.00
2019-04-10T10:40:10.003Z,21.43
2019-04-10T10:42:40.979Z,22.77
2019-04-10T10:45:10.490Z,21.83
2019-04-10T10:47:40.162Z,21.77
2019-04-10T10:50:10.125Z,24.27
2019-04-10T10:52:39.647Z,21.60
2019-04-10T10:55:09.711Z,23.73
2019-04-10T10:57:39.451Z,23.93
2019-04-10T11:00:13.014Z,30.63
2019-04-10T11:02:41.524Z,27.50
2019-04-10T11:05:10.787Z,25.17
2019-04-10T11:07:40.402Z,23.93
2019-04-10T11:10:09.656Z,27.40
2019-04-10T11:12:38.427Z,26.03
2019-04-10T11:15:07.883Z,23.50
2019-04-10T11:17:38.511Z,21.33
2019-04-10T11:20:10.064Z,21.40
2019-04-10T11:22:39.809Z,21.97
2019-04-10T11:25:08.868Z,20.97
2019-04-10T11:27:37.326Z,19.93
2019-04-10T11:30:08.295Z,19.60
2019-04-10T11:32:38.163Z,18.10
2019-04-10T11:35:07.948Z,17.83
2019-04-10T11:37:43.411Z,19.27
2019-04-10T11:40:08.765Z,19.00
2019-04-10T11:42:39.737Z,18.40
2019-04-10T11:45:10.405Z,17.30
2019-04-10T11:47:39.588Z,17.40
2019-04-10T11:52:44.766Z,17.33
2019-04-10T11:55:13.905Z,17.30
2019-04-10T11:57:41.757Z,17.87
2019-04-10T12:00:16.977Z,18.50
2019-04-10T12:02:43.950Z,18.97
2019-04-10T12:05:18.144Z,17.97
2019-04-10T12:08:09.543Z,20.00
2019-04-10T12:12:43.804Z,16.10
2019-04-10T12:15:12.620Z,16.00
2019-04-10T12:17:42.984Z,15.97
2019-04-10T12:20:11.591Z,16.60
2019-04-10T12:22:40.713Z,15.23
2019-04-10T12:25:10.238Z,16.03
2019-04-10T12:27:39.066Z,14.93
2019-04-10T12:30:13.166Z,16.10
2019-04-10T12:32:41.757Z,15.30
2019-04-10T12:35:11.528Z,19.00
2019-04-10T12:37:41.172Z,18.63
2019-04-10T12:40:10.055Z,17.27
2019-04-10T12:42:38.751Z,22.07
2019-04-10T12:45:08.281Z,15.53
2019-04-10T12:47:37.687Z,13.40
2019-04-10T12:50:10.039Z,13.67
2019-04-10T12:52:38.817Z,12.37
2019-04-10T12:55:08.270Z,13.63
2019-04-10T12:57:37.053Z,12.90
2019-04-10T13:00:09.898Z,12.87
2019-04-10T13:02:38.617Z,13.47
2019-04-10T13:05:07.497Z,14.80
2019-04-10T13:07:36.106Z,13.40
2019-04-10T13:10:08.592Z,13.97
2019-04-10T13:12:37.653Z,12.90
2019-04-10T13:15:10.927Z,13.27
2019-04-10T13:17:40.674Z,12.63
2019-04-10T13:20:11.500Z,14.60
2019-04-10T13:22:40.180Z,13.60
2019-04-10T13:25:10.169Z,14.43
2019-04-10T13:27:39.082Z,13.00
2019-04-10T13:30:12.581Z,14.10
2019-04-10T13:32:40.419Z,13.00
2019-04-10T13:35:10.330Z,14.13
2019-04-10T13:37:39.180Z,12.87
2019-04-10T13:40:08.525Z,13.57
2019-04-10T13:42:37.292Z,12.93
2019-04-10T13:45:07.969Z,14.03
2019-04-10T13:47:36.620Z,13.33
2019-04-10T13:50:08.690Z,13.07
2019-04-10T13:52:38.912Z,12.60
2019-04-10T13:55:10.084Z,11.87
2019-04-10T13:57:39.216Z,12.53
2019-04-10T14:00:11.299Z,12.77
2019-04-10T14:02:39.863Z,12.30
2019-04-10T14:05:11.516Z,12.80
2019-04-10T14:07:40.228Z,12.10
2019-04-10T14:10:10.507Z,12.47
2019-04-10T14:12:39.116Z,11.73
2019-04-10T14:15:07.831Z,12.33
2019-04-10T14:17:37.494Z,12.37
2019-04-10T14:20:07.026Z,12.20
2019-04-10T14:22:37.958Z,13.37
2019-04-10T14:25:09.604Z,11.73
2019-04-10T14:27:38.643Z,12.20
2019-04-10T14:30:11.319Z,13.00
2019-04-10T14:32:40.098Z,12.70
2019-04-10T14:35:10.002Z,11.40
2019-04-10T14:37:38.675Z,11.77
2019-04-10T14:40:09.571Z,11.90
2019-04-10T14:42:38.398Z,11.40
2019-04-10T14:45:08.897Z,11.50
2019-04-10T14:47:37.569Z,11.83
2019-04-10T14:50:07.414Z,13.67
2019-04-10T14:52:37.142Z,11.53
2019-04-10T14:55:06.217Z,12.07
2019-04-10T14:57:34.934Z,12.23
2019-04-10T15:00:08.543Z,12.20
2019-04-10T15:02:37.122Z,11.83
2019-04-10T15:05:07.919Z,11.87
2019-04-10T15:07:37.304Z,10.73
2019-04-10T15:10:07.092Z,11.10
2019-04-10T15:12:35.555Z,9.77
2019-04-10T15:15:05.124Z,10.70
2019-04-10T15:17:33.949Z,10.93
2019-04-10T15:20:02.836Z,10.60
2019-04-10T15:22:31.763Z,10.93
2019-04-10T15:25:01.407Z,10.60
2019-04-10T15:27:30.221Z,8.37
2019-04-10T15:29:58.739Z,12.53
2019-04-10T15:32:27.382Z,10.73
2019-04-10T15:34:55.952Z,10.10
2019-04-10T15:37:24.958Z,9.93
2019-04-10T15:39:53.943Z,10.90
2019-04-10T15:42:23.787Z,9.80
2019-04-10T15:44:52.465Z,10.03
2019-04-10T15:47:23.384Z,8.40
2019-04-10T15:49:55.682Z,11.23
2019-04-10T15:52:24.270Z,8.97
2019-04-10T15:54:53.815Z,9.17
2019-04-10T15:57:22.739Z,9.40
2019-04-10T15:59:52.445Z,9.70
2019-04-10T16:02:21.672Z,10.60
2019-04-10T16:04:51.061Z,9.83
2019-04-10T16:07:20.355Z,11.30
2019-04-10T16:09:51.993Z,9.10
2019-04-10T16:12:21.291Z,12.00
2019-04-10T16:14:50.665Z,10.63
2019-04-10T16:17:23.984Z,10.57
2019-04-10T16:19:59.830Z,11.20
2019-04-10T16:22:31.225Z,16.60
2019-04-10T16:25:01.405Z,14.03
2019-04-10T16:27:30.685Z,9.33
2019-04-10T16:30:02.074Z,10.90
2019-04-10T16:32:29.634Z,10.90
2019-04-10T16:34:58.895Z,12.07
2019-04-10T16:37:27.620Z,12.30
2019-04-10T16:40:00.457Z,11.43
2019-04-10T16:42:26.518Z,13.37
2019-04-10T16:44:55.422Z,12.57
2019-04-10T16:47:23.941Z,13.63
2019-04-10T16:49:53.122Z,19.37
2019-04-10T16:52:23.022Z,28.43
2019-04-10T16:54:51.697Z,34.63
2019-04-10T16:57:20.681Z,28.87
2019-04-10T16:59:49.385Z,21.67
2019-04-10T17:02:17.996Z,20.70
2019-04-10T17:04:46.547Z,17.23
2019-04-10T17:07:15.006Z,17.50
2019-04-10T17:09:43.860Z,12.70
2019-04-10T17:12:13.699Z,14.97
2019-04-10T17:14:42.178Z,16.73
2019-04-10T17:17:10.879Z,17.03
2019-04-10T17:19:48.746Z,12.73
2019-04-10T17:22:10.904Z,12.20
2019-04-10T17:24:39.748Z,14.47
2019-04-10T17:27:08.316Z,14.90
2019-04-10T17:29:36.908Z,27.97
2019-04-10T17:32:06.745Z,16.80
2019-04-10T17:34:35.563Z,13.83
2019-04-10T17:37:05.347Z,14.77
2019-04-10T17:39:35.487Z,13.47
2019-04-10T17:42:04.295Z,20.73
2019-04-10T17:44:33.840Z,14.23
2019-04-10T17:47:03.949Z,14.00
2019-04-10T17:49:33.790Z,17.87
2019-04-10T17:52:03.772Z,15.23
2019-04-10T17:54:32.455Z,15.67
2019-04-10T17:57:00.991Z,15.17
2019-04-10T17:59:30.217Z,15.47
2019-04-10T18:02:01.168Z,16.23
2019-04-10T18:04:29.845Z,16.87
2019-04-10T18:06:59.552Z,13.53
2019-04-10T18:09:28.509Z,20.03
2019-04-10T18:11:59.430Z,15.73
2019-04-10T18:14:27.306Z,14.87
2019-04-10T18:16:55.755Z,14.03
2019-04-10T18:19:25.287Z,14.60
2019-04-10T18:21:54.238Z,13.73
2019-04-10T18:24:22.871Z,14.33
2019-04-10T18:26:53.660Z,13.70
2019-04-10T18:29:21.651Z,13.23
2019-04-10T18:31:50.976Z,13.27
2019-04-10T18:34:21.447Z,13.57
2019-04-10T18:36:51.090Z,12.70
2019-04-10T18:39:19.990Z,14.53
2019-04-10T18:41:48.604Z,15.07
2019-04-10T18:44:17.144Z,15.17
2019-04-10T18:46:46.674Z,16.63
2019-04-10T18:49:15.610Z,14.97
2019-04-10T18:51:44.195Z,14.73
2019-04-10T18:54:12.659Z,17.27
2019-04-10T18:56:41.117Z,15.80
2019-04-10T18:59:14.357Z,15.50
2019-04-10T19:01:51.482Z,17.10
2019-04-10T19:04:22.454Z,13.27
2019-04-10T19:07:01.911Z,27.83
2019-04-10T19:09:32.540Z,12.70
2019-04-10T19:12:02.335Z,12.67
2019-04-10T19:14:34.821Z,15.20
2019-04-10T19:17:02.470Z,13.67
2019-04-10T19:19:32.384Z,17.27
2019-04-10T19:22:02.139Z,14.40
2019-04-10T19:24:32.351Z,15.83
2019-04-10T19:27:01.995Z,14.60
2019-04-10T19:29:31.578Z,13.60
2019-04-10T19:32:02.219Z,14.93
2019-04-10T19:34:31.723Z,12.83
2019-04-10T19:37:00.548Z,12.53
2019-04-10T19:39:30.003Z,12.60
2019-04-10T19:41:58.600Z,13.27
2019-04-10T19:44:27.235Z,12.40
2019-04-10T19:46:55.814Z,14.13
2019-04-10T19:49:24.279Z,13.77
2019-04-10T19:51:52.911Z,12.87
2019-04-10T19:54:22.044Z,19.30
2019-04-10T19:56:50.969Z,14.10
2019-04-10T19:59:20.756Z,14.73
2019-04-10T20:01:50.596Z,15.83
2019-04-10T20:04:19.263Z,12.87
2019-04-10T20:06:48.790Z,11.10
2019-04-10T20:09:17.923Z,16.23
2019-04-10T20:11:52.409Z,16.27
2019-04-10T20:14:16.879Z,14.50
2019-04-10T20:16:45.400Z,9.73
2019-04-10T20:19:14.966Z,12.33
2019-04-10T20:21:43.993Z,9.80
2019-04-10T20:24:12.559Z,10.57
2019-04-10T20:26:41.234Z,9.97
2019-04-10T20:29:10.735Z,8.93
2019-04-10T20:31:39.576Z,8.43
2019-04-10T20:34:09.402Z,7.47
2019-04-10T20:36:38.894Z,6.80
2019-04-10T20:39:09.440Z,7.33
2019-04-10T20:41:47.624Z,7.43
2019-04-10T20:44:09.301Z,8.90
2019-04-10T20:46:38.260Z,8.47
2019-04-10T20:49:08.388Z,8.87
2019-04-10T20:51:37.740Z,7.97
2019-04-10T20:54:06.607Z,6.83
2019-04-10T20:56:35.089Z,11.93
2019-04-10T20:59:03.678Z,7.10
2019-04-10T21:01:33.066Z,8.00
2019-04-10T21:04:01.579Z,8.83
2019-04-10T21:06:30.022Z,7.83
2019-04-10T21:08:58.788Z,8.10
2019-04-10T21:11:27.297Z,9.30
2019-04-10T21:13:56.571Z,13.30
2019-04-10T21:16:25.295Z,10.33
2019-04-10T21:18:53.933Z,8.70
2019-04-10T21:21:22.455Z,8.03
2019-04-10T21:23:52.041Z,8.60
2019-04-10T21:26:21.897Z,7.43
2019-04-10T21:28:51.526Z,8.20
2019-04-10T21:31:27.583Z,7.83
2019-04-10T21:34:16.012Z,9.10
2019-04-10T21:36:45.564Z,13.10
2019-04-10T21:39:14.175Z,12.57
2019-04-10T21:41:42.622Z,11.90
2019-04-10T21:44:11.517Z,9.03
2019-04-10T21:46:41.399Z,9.37
2019-04-10T21:49:09.867Z,9.13
2019-04-10T21:51:38.374Z,8.47
2019-04-10T21:54:06.829Z,8.37
2019-04-10T21:56:35.269Z,9.80
2019-04-10T21:59:03.799Z,13.80
2019-04-10T22:01:32.506Z,9.83
2019-04-10T22:04:02.615Z,15.00
2019-04-10T22:06:39.722Z,7.43
2019-04-10T22:09:28.459Z,7.30
2019-04-10T22:11:58.825Z,7.30
2019-04-10T22:14:28.234Z,7.20
2019-04-10T22:16:58.117Z,7.53
2019-04-10T22:19:26.825Z,7.87
2019-04-10T22:21:55.809Z,7.67
2019-04-10T22:24:25.505Z,8.57
2019-04-10T22:26:54.403Z,6.70
2019-04-10T22:29:23.187Z,7.33
2019-04-10T22:31:51.694Z,10.80
2019-04-10T22:34:21.287Z,7.37
2019-04-10T22:36:49.994Z,8.50
2019-04-10T22:39:18.880Z,7.73
2019-04-10T22:41:48.342Z,8.00
2019-04-10T22:44:17.559Z,9.23
2019-04-10T22:46:46.820Z,7.20
2019-04-10T22:49:15.470Z,8.20
2019-04-10T22:51:44.015Z,7.30
2019-04-10T22:54:13.080Z,7.57
2019-04-10T22:56:42.243Z,8.33
2019-04-10T22:59:10.963Z,8.30
2019-04-10T23:01:39.771Z,9.47
2019-04-10T23:04:08.483Z,8.87
2019-04-10T23:06:37.510Z,10.00
2019-04-10T23:09:09.731Z,8.87
2019-04-10T23:11:42.280Z,10.57
2019-04-10T23:14:08.430Z,9.37
2019-04-10T23:16:37.886Z,9.03
2019-04-10T23:19:06.690Z,10.47
2019-04-10T23:21:35.206Z,10.20
2019-04-10T23:24:03.723Z,13.10
2019-04-10T23:26:33.253Z,10.37
2019-04-10T23:29:02.101Z,9.93
2019-04-10T23:31:30.627Z,9.10
2019-04-10T23:33:59.139Z,14.23
2019-04-10T23:36:27.666Z,11.40
2019-04-10T23:38:56.111Z,12.43
2019-04-10T23:41:25.450Z,11.83
2019-04-10T23:43:54.012Z,10.33
2019-04-10T23:46:22.539Z,13.13
2019-04-10T23:48:50.995Z,12.43
2019-04-10T23:51:19.452Z,10.33
2019-04-10T23:53:48.936Z,9.93
2019-04-10T23:56:17.805Z,11.47
2019-04-10T23:58:46.577Z,11.73
